createdAt,value
2018-09-01T00:01:29.202Z,10.40
2018-09-01T00:03:58.586Z,10.40
2018-09-01T00:06:26.959Z,10.40
2018-09-01T00:08:55.502Z,10.40
2018-09-01T00:11:23.831Z,10.30
2018-09-01T00:13:52.182Z,10.20
2018-09-01T00:16:20.811Z,10.20
2018-09-01T00:18:49.571Z,10.20
2018-09-01T00:21:18.416Z,10.10
2018-09-01T00:23:46.773Z,10.10
2018-09-01T00:26:15.118Z,10.00
2018-09-01T00:28:43.473Z,10.10
2018-09-01T00:31:11.792Z,10.00
2018-09-01T00:33:40.191Z,10.00
2018-09-01T00:36:08.587Z,9.90
2018-09-01T00:38:42.227Z,9.90
2018-09-01T00:41:10.620Z,9.80
2018-09-01T00:43:38.996Z,9.80
2018-09-01T00:46:07.370Z,9.60
2018-09-01T00:48:35.993Z,9.50
2018-09-01T00:51:04.364Z,9.50
2018-09-01T00:53:32.746Z,9.50
2018-09-01T00:56:01.107Z,9.50
2018-09-01T00:58:29.490Z,9.40
2018-09-01T01:00:57.889Z,9.40
2018-09-01T01:03:26.230Z,9.20
2018-09-01T01:05:54.588Z,9.10
2018-09-01T01:08:23.044Z,9.10
2018-09-01T01:10:51.427Z,9.00
2018-09-01T01:13:19.759Z,9.00
2018-09-01T01:15:48.049Z,9.00
2018-09-01T01:18:16.402Z,8.90
2018-09-01T01:20:44.754Z,9.00
2018-09-01T01:23:13.336Z,9.00
2018-09-01T01:25:41.697Z,9.10
2018-09-01T01:28:09.990Z,9.00
2018-09-01T01:30:38.539Z,9.10
2018-09-01T01:33:06.897Z,9.10
2018-09-01T01:35:35.200Z,9.10
2018-09-01T01:38:03.493Z,9.00
2018-09-01T01:40:31.776Z,9.00
2018-09-01T01:43:00.122Z,8.90
2018-09-01T01:45:29.868Z,8.90
2018-09-01T01:47:58.504Z,8.80
2018-09-01T01:50:26.845Z,8.60
2018-09-01T01:52:55.126Z,8.60
2018-09-01T01:55:23.468Z,8.40
2018-09-01T01:57:52.289Z,8.30
2018-09-01T02:00:20.637Z,8.20
2018-09-01T02:02:49.231Z,8.20
2018-09-01T02:05:20.516Z,8.20
2018-09-01T02:07:49.959Z,8.20
2018-09-01T02:10:18.325Z,8.20
2018-09-01T02:12:46.654Z,8.10
2018-09-01T02:15:14.929Z,8.10
2018-09-01T02:17:43.235Z,8.00
2018-09-01T02:20:11.557Z,8.00
2018-09-01T02:22:39.853Z,7.90
2018-09-01T02:25:08.161Z,7.90
2018-09-01T02:27:36.626Z,7.90
2018-09-01T02:30:05.134Z,7.80
2018-09-01T02:32:33.424Z,8.00
2018-09-01T02:35:01.717Z,7.80
2018-09-01T02:37:30.021Z,7.90
2018-09-01T02:39:58.317Z,7.90
2018-09-01T02:42:26.659Z,7.90
2018-09-01T02:44:54.946Z,8.00
2018-09-01T02:47:23.242Z,8.00
2018-09-01T02:49:51.529Z,8.00
2018-09-01T02:52:19.904Z,7.90
2018-09-01T02:54:48.224Z,7.90
2018-09-01T02:57:16.556Z,7.90
2018-09-01T02:59:44.863Z,7.80
2018-09-01T03:02:17.368Z,7.80
2018-09-01T03:04:45.696Z,7.80
2018-09-01T03:07:13.964Z,7.90
2018-09-01T03:09:42.263Z,7.90
2018-09-01T03:12:10.586Z,7.90
2018-09-01T03:14:38.890Z,7.90
2018-09-01T03:17:07.196Z,7.90
2018-09-01T03:19:35.498Z,8.00
2018-09-01T03:22:03.811Z,8.00
2018-09-01T03:24:32.117Z,8.00
2018-09-01T03:27:00.449Z,8.00
2018-09-01T03:29:28.797Z,8.00
2018-09-01T03:31:57.100Z,8.00
2018-09-01T03:34:25.407Z,7.90
2018-09-01T03:36:53.718Z,7.80
2018-09-01T03:39:22.009Z,7.80
2018-09-01T03:41:50.347Z,7.80
2018-09-01T03:44:18.653Z,7.80
2018-09-01T03:46:46.974Z,6.80
2018-09-01T03:49:15.289Z,7.60
2018-09-01T03:51:43.553Z,7.60
2018-09-01T03:54:11.862Z,7.60
2018-09-01T03:56:40.146Z,7.60
2018-09-01T03:59:08.478Z,7.50
2018-09-01T04:01:36.783Z,7.40
2018-09-01T04:04:05.059Z,7.30
2018-09-01T04:06:33.365Z,7.20
2018-09-01T04:09:01.710Z,7.20
2018-09-01T04:11:30.054Z,7.10
2018-09-01T04:13:58.351Z,7.10
2018-09-01T04:16:27.020Z,7.10
2018-09-01T04:18:55.299Z,7.00
2018-09-01T04:21:23.606Z,6.90
2018-09-01T04:23:51.905Z,6.90
2018-09-01T04:26:20.225Z,6.80
2018-09-01T04:28:48.505Z,6.70
2018-09-01T04:31:16.830Z,6.70
2018-09-01T04:33:45.147Z,6.60
2018-09-01T04:36:13.456Z,6.60
2018-09-01T04:38:41.730Z,6.60
2018-09-01T04:41:10.037Z,6.60
2018-09-01T04:43:38.400Z,6.70
2018-09-01T04:46:06.681Z,6.60
2018-09-01T04:48:34.965Z,6.50
2018-09-01T04:51:03.265Z,6.60
2018-09-01T04:53:31.569Z,6.60
2018-09-01T04:55:59.854Z,6.50
2018-09-01T04:58:28.161Z,6.50
2018-09-01T05:00:56.603Z,6.50
2018-09-01T05:03:24.843Z,6.50
2018-09-01T05:05:53.182Z,6.60
2018-09-01T05:08:21.524Z,6.60
2018-09-01T05:10:49.804Z,6.70
2018-09-01T05:13:18.155Z,6.60
2018-09-01T05:15:46.497Z,6.60
2018-09-01T05:18:14.848Z,6.70
2018-09-01T05:20:43.164Z,6.70
2018-09-01T05:23:11.502Z,6.60
2018-09-01T05:25:40.125Z,6.60
2018-09-01T05:28:08.559Z,6.60
2018-09-01T05:30:36.913Z,6.70
2018-09-01T05:33:05.261Z,6.70
2018-09-01T05:35:33.558Z,6.80
2018-09-01T05:38:01.913Z,6.90
2018-09-01T05:40:30.410Z,7.10
2018-09-01T05:42:58.729Z,7.10
2018-09-01T05:45:27.045Z,7.30
2018-09-01T05:47:55.370Z,7.40
2018-09-01T05:50:23.718Z,7.50
2018-09-01T05:52:52.156Z,7.60
2018-09-01T05:55:20.513Z,7.80
2018-09-01T05:57:48.826Z,8.00
2018-09-01T06:00:20.782Z,8.10
2018-09-01T06:02:50.451Z,8.20
2018-09-01T06:05:18.829Z,8.40
2018-09-01T06:07:47.199Z,8.50
2018-09-01T06:10:15.676Z,8.70
2018-09-01T06:12:44.590Z,8.80
2018-09-01T06:15:12.998Z,9.10
2018-09-01T06:17:41.418Z,9.20
2018-09-01T06:20:10.017Z,9.30
2018-09-01T06:22:38.602Z,9.30
2018-09-01T06:25:07.171Z,9.40
2018-09-01T06:27:40.606Z,9.60
2018-09-01T06:30:13.321Z,10.00
2018-09-01T06:32:41.674Z,10.40
2018-09-01T06:35:10.425Z,10.70
2018-09-01T06:37:38.874Z,10.80
2018-09-01T06:40:08.730Z,11.30
2018-09-01T06:42:37.071Z,12.10
2018-09-01T06:45:05.460Z,12.80
2018-09-01T06:47:33.802Z,13.40
2018-09-01T06:50:02.221Z,14.00
2018-09-01T06:52:31.741Z,14.20
2018-09-01T06:55:00.157Z,14.60
2018-09-01T06:57:28.501Z,15.00
2018-09-01T06:59:56.914Z,15.60
2018-09-01T07:02:25.310Z,15.70
2018-09-01T07:04:53.746Z,16.10
2018-09-01T07:07:22.690Z,15.90
2018-09-01T07:09:51.166Z,16.00
2018-09-01T07:12:19.582Z,16.30
2018-09-01T07:14:47.992Z,16.30
2018-09-01T07:17:16.408Z,16.70
2018-09-01T07:19:45.357Z,16.90
2018-09-01T07:22:13.993Z,16.80
2018-09-01T07:24:43.057Z,16.80
2018-09-01T07:27:11.540Z,16.70
2018-09-01T07:29:40.058Z,16.90
2018-09-01T07:32:09.128Z,17.50
2018-09-01T07:34:38.376Z,17.70
2018-09-01T07:37:06.906Z,18.30
2018-09-01T07:39:35.363Z,17.70
2018-09-01T07:42:19.557Z,17.50
2018-09-01T07:44:50.536Z,17.90
2018-09-01T07:47:23.161Z,17.50
2018-09-01T07:49:52.140Z,17.80
2018-09-01T07:52:22.289Z,17.50
2018-09-01T07:54:51.607Z,17.80
2018-09-01T07:57:22.402Z,17.60
2018-09-01T07:59:50.780Z,17.70
2018-09-01T08:02:19.133Z,17.80
2018-09-01T08:04:47.493Z,17.90
2018-09-01T08:07:15.892Z,18.20
2018-09-01T08:09:44.289Z,18.00
2018-09-01T08:12:12.656Z,17.80
2018-09-01T08:14:41.125Z,17.80
2018-09-01T08:17:09.393Z,17.90
2018-09-01T08:19:37.676Z,18.00
2018-09-01T08:22:06.187Z,17.90
2018-09-01T08:24:34.513Z,17.40
2018-09-01T08:27:02.896Z,16.10
2018-09-01T08:29:31.301Z,17.60
2018-09-01T08:31:59.998Z,17.60
2018-09-01T08:34:28.430Z,17.50
2018-09-01T08:36:56.799Z,17.50
2018-09-01T08:39:25.172Z,17.70
2018-09-01T08:41:57.121Z,17.70
2018-09-01T08:44:26.431Z,17.70
2018-09-01T08:46:54.808Z,17.70
2018-09-01T08:49:23.201Z,17.80
2018-09-01T08:51:51.712Z,17.80
2018-09-01T08:54:20.261Z,17.70
2018-09-01T08:56:48.655Z,17.60
2018-09-01T08:59:17.809Z,17.60
2018-09-01T09:01:46.361Z,17.80
2018-09-01T09:04:14.658Z,17.90
2018-09-01T09:06:43.182Z,17.90
2018-09-01T09:09:11.617Z,17.80
2018-09-01T09:11:40.008Z,17.50
2018-09-01T09:14:08.368Z,17.80
2018-09-01T09:16:36.752Z,17.70
2018-09-01T09:19:05.126Z,17.80
2018-09-01T09:21:33.538Z,17.90
2018-09-01T09:24:02.106Z,17.80
2018-09-01T09:26:30.582Z,18.00
2018-09-01T09:28:58.958Z,18.20
2018-09-01T09:31:27.334Z,18.60
2018-09-01T09:33:55.763Z,18.40
2018-09-01T09:36:24.136Z,18.20
2018-09-01T09:38:52.506Z,18.30
2018-09-01T09:41:20.876Z,18.40
2018-09-01T09:43:49.271Z,18.40
2018-09-01T09:46:17.620Z,18.60
2018-09-01T09:48:46.099Z,18.70
2018-09-01T09:51:14.453Z,18.90
2018-09-01T09:53:42.826Z,18.80
2018-09-01T09:56:11.213Z,18.60
2018-09-01T09:58:39.887Z,18.60
2018-09-01T10:01:13.550Z,18.60
2018-09-01T10:03:43.454Z,18.80
2018-09-01T10:06:11.846Z,18.70
2018-09-01T10:08:40.184Z,19.00
2018-09-01T10:11:08.713Z,19.20
2018-09-01T10:13:37.079Z,19.40
2018-09-01T10:16:05.606Z,19.20
2018-09-01T10:18:33.969Z,19.20
2018-09-01T10:21:02.679Z,18.90
2018-09-01T10:23:31.718Z,19.00
2018-09-01T10:26:00.373Z,18.90
2018-09-01T10:28:29.079Z,19.10
2018-09-01T10:30:57.740Z,19.40
2018-09-01T10:33:26.162Z,19.60
2018-09-01T10:35:55.332Z,20.00
2018-09-01T10:38:23.875Z,20.00
2018-09-01T10:40:52.329Z,19.50
2018-09-01T10:43:20.808Z,19.50
2018-09-01T10:45:49.895Z,18.90
2018-09-01T10:48:18.377Z,18.30
2018-09-01T10:50:46.891Z,18.30
2018-09-01T10:53:15.295Z,18.80
2018-09-01T10:55:44.159Z,19.10
2018-09-01T10:58:12.760Z,19.20
2018-09-01T11:00:41.364Z,19.50
2018-09-01T11:03:09.863Z,19.30
2018-09-01T11:05:38.320Z,19.20
2018-09-01T11:08:06.824Z,19.00
2018-09-01T11:10:35.277Z,18.70
2018-09-01T11:13:04.120Z,18.40
2018-09-01T11:15:32.907Z,18.40
2018-09-01T11:18:01.376Z,18.90
2018-09-01T11:20:29.817Z,19.60
2018-09-01T11:22:58.828Z,19.60
2018-09-01T11:25:27.178Z,19.40
2018-09-01T11:27:55.653Z,19.30
2018-09-01T11:30:24.012Z,19.70
2018-09-01T11:32:52.781Z,20.40
2018-09-01T11:35:21.275Z,20.40
2018-09-01T11:37:50.036Z,20.50
2018-09-01T11:40:18.463Z,21.00
2018-09-01T11:42:47.345Z,21.00
2018-09-01T11:45:15.657Z,20.60
2018-09-01T11:47:44.100Z,20.00
2018-09-01T11:50:13.331Z,19.30
2018-09-01T11:52:42.675Z,19.30
2018-09-01T11:55:12.118Z,19.70
2018-09-01T11:57:40.855Z,19.50
2018-09-01T12:00:10.202Z,19.30
2018-09-01T12:02:38.604Z,19.70
2018-09-01T12:05:07.011Z,21.50
2018-09-01T12:07:35.399Z,19.40
2018-09-01T12:10:04.508Z,19.00
2018-09-01T12:12:32.870Z,18.90
2018-09-01T12:15:01.282Z,19.40
2018-09-01T12:17:29.818Z,19.90
2018-09-01T12:19:58.159Z,19.60
2018-09-01T12:22:26.664Z,19.20
2018-09-01T12:24:55.155Z,18.70
2018-09-01T12:27:23.590Z,18.50
2018-09-01T12:29:52.037Z,18.40
2018-09-01T12:32:20.419Z,18.50
2018-09-01T12:34:48.879Z,18.30
2018-09-01T12:37:17.605Z,18.20
2018-09-01T12:39:46.989Z,18.10
2018-09-01T12:42:15.403Z,18.20
2018-09-01T12:44:43.800Z,18.40
2018-09-01T12:47:12.197Z,18.70
2018-09-01T12:49:41.382Z,18.70
2018-09-01T12:52:09.772Z,19.00
2018-09-01T12:54:38.158Z,19.60
2018-09-01T12:57:06.531Z,20.50
2018-09-01T12:59:35.025Z,21.30
2018-09-01T13:02:03.778Z,21.80
2018-09-01T13:04:32.171Z,21.20
2018-09-01T13:07:00.602Z,20.50
2018-09-01T13:09:28.950Z,20.00
2018-09-01T13:11:57.335Z,19.30
2018-09-01T13:14:27.078Z,18.90
2018-09-01T13:16:55.833Z,18.80
2018-09-01T13:19:24.273Z,18.70
2018-09-01T13:21:52.669Z,18.70
2018-09-01T13:24:21.020Z,18.80
2018-09-01T13:26:49.480Z,19.10
2018-09-01T13:29:17.866Z,20.60
2018-09-01T13:31:46.359Z,22.60
2018-09-01T13:34:14.817Z,24.20
2018-09-01T13:36:43.297Z,24.90
2018-09-01T13:39:11.663Z,24.50
2018-09-01T13:41:40.095Z,23.40
2018-09-01T13:44:08.479Z,22.40
2018-09-01T13:46:36.812Z,21.10
2018-09-01T13:49:05.275Z,20.50
2018-09-01T13:51:34.414Z,20.20
2018-09-01T13:54:02.858Z,19.90
2018-09-01T13:56:31.196Z,19.60
2018-09-01T13:58:59.535Z,19.40
2018-09-01T14:01:27.920Z,19.20
2018-09-01T14:03:56.262Z,18.90
2018-09-01T14:06:24.619Z,18.90
2018-09-01T14:08:53.044Z,19.20
2018-09-01T14:11:21.397Z,19.20
2018-09-01T14:13:49.848Z,19.80
2018-09-01T14:16:18.257Z,21.20
2018-09-01T14:18:46.621Z,21.40
2018-09-01T14:21:14.950Z,22.20
2018-09-01T14:23:43.568Z,24.30
2018-09-01T14:26:11.917Z,25.40
2018-09-01T14:28:40.777Z,24.40
2018-09-01T14:31:09.125Z,23.00
2018-09-01T14:33:37.505Z,21.80
2018-09-01T14:36:06.055Z,20.70
2018-09-01T14:38:34.680Z,20.10
2018-09-01T14:41:03.950Z,19.60
2018-09-01T14:43:32.371Z,19.50
2018-09-01T14:46:00.727Z,20.30
2018-09-01T14:48:29.151Z,22.20
2018-09-01T14:50:57.537Z,23.80
2018-09-01T14:53:25.920Z,25.00
2018-09-01T14:55:54.313Z,26.00
2018-09-01T14:58:22.654Z,26.40
2018-09-01T15:00:51.011Z,27.30
2018-09-01T15:03:19.379Z,28.20
2018-09-01T15:05:47.774Z,27.00
2018-09-01T15:08:16.122Z,25.60
2018-09-01T15:10:44.473Z,24.00
2018-09-01T15:13:12.859Z,22.00
2018-09-01T15:15:42.765Z,20.50
2018-09-01T15:18:11.122Z,20.00
2018-09-01T15:20:39.512Z,20.30
2018-09-01T15:23:07.862Z,21.70
2018-09-01T15:25:36.783Z,23.40
2018-09-01T15:28:06.363Z,24.80
2018-09-01T15:30:34.756Z,24.90
2018-09-01T15:33:03.139Z,25.20
2018-09-01T15:35:32.721Z,25.20
2018-09-01T15:38:01.045Z,25.60
2018-09-01T15:40:29.399Z,25.40
2018-09-01T15:42:57.878Z,24.70
2018-09-01T15:45:26.252Z,24.70
2018-09-01T15:47:55.210Z,24.40
2018-09-01T15:50:23.555Z,24.30
2018-09-01T15:52:52.043Z,24.40
2018-09-01T15:55:20.456Z,24.00
2018-09-01T15:57:48.791Z,24.60
2018-09-01T16:00:17.180Z,24.90
2018-09-01T16:02:45.554Z,26.20
2018-09-01T16:05:13.937Z,26.80
2018-09-01T16:07:42.873Z,27.60
2018-09-01T16:10:13.016Z,27.90
2018-09-01T16:12:41.521Z,27.90
2018-09-01T16:15:09.891Z,27.20
2018-09-01T16:17:38.290Z,25.80
2018-09-01T16:20:06.715Z,25.50
2018-09-01T16:22:35.043Z,25.90
2018-09-01T16:25:03.842Z,25.40
2018-09-01T16:27:32.206Z,24.90
2018-09-01T16:30:00.556Z,24.30
2018-09-01T16:32:31.382Z,25.20
2018-09-01T16:34:59.712Z,25.30
2018-09-01T16:37:28.116Z,25.50
2018-09-01T16:39:56.477Z,24.70
2018-09-01T16:42:24.901Z,24.30
2018-09-01T16:44:53.259Z,24.00
2018-09-01T16:47:21.635Z,23.60
2018-09-01T16:49:49.986Z,23.60
2018-09-01T16:52:18.536Z,23.40
2018-09-01T16:54:46.839Z,23.00
2018-09-01T16:57:15.174Z,23.00
2018-09-01T16:59:44.242Z,22.80
2018-09-01T17:02:12.587Z,22.70
2018-09-01T17:04:40.928Z,22.10
2018-09-01T17:07:09.549Z,22.30
2018-09-01T17:09:38.132Z,22.50
2018-09-01T17:12:06.499Z,21.80
2018-09-01T17:14:35.520Z,21.30
2018-09-01T17:17:04.001Z,20.60
2018-09-01T17:19:32.366Z,20.00
2018-09-01T17:22:00.883Z,19.50
2018-09-01T17:24:29.653Z,18.90
2018-09-01T17:26:58.183Z,18.50
2018-09-01T17:29:26.887Z,18.30
2018-09-01T17:31:55.218Z,18.20
2018-09-01T17:34:23.578Z,18.10
2018-09-01T17:36:51.900Z,18.00
2018-09-01T17:39:20.230Z,17.80
2018-09-01T17:41:48.857Z,17.70
2018-09-01T17:44:17.513Z,17.50
2018-09-01T17:46:45.951Z,17.40
2018-09-01T17:49:14.327Z,17.40
2018-09-01T17:51:42.791Z,17.30
2018-09-01T17:54:12.022Z,17.30
2018-09-01T17:56:40.866Z,17.20
2018-09-01T17:59:09.556Z,17.10
2018-09-01T18:01:37.943Z,17.00
2018-09-01T18:04:06.479Z,16.80
2018-09-01T18:06:34.804Z,16.80
2018-09-01T18:09:04.323Z,16.60
2018-09-01T18:11:33.387Z,16.50
2018-09-01T18:14:01.757Z,16.30
2018-09-01T18:16:30.214Z,16.20
2018-09-01T18:18:58.703Z,16.10
2018-09-01T18:21:27.108Z,15.90
2018-09-01T18:23:55.752Z,15.70
2018-09-01T18:26:24.080Z,15.60
2018-09-01T18:28:54.377Z,15.40
2018-09-01T18:31:22.744Z,15.30
2018-09-01T18:33:51.162Z,15.10
2018-09-01T18:36:20.514Z,15.00
2018-09-01T18:38:48.960Z,15.00
2018-09-01T18:41:17.473Z,14.90
2018-09-01T18:43:45.907Z,14.90
2018-09-01T18:46:14.387Z,14.90
2018-09-01T18:48:42.794Z,14.80
2018-09-01T18:51:11.253Z,14.80
2018-09-01T18:53:39.880Z,14.70
2018-09-01T18:56:08.716Z,14.70
2018-09-01T18:58:37.187Z,14.60
2018-09-01T19:01:05.896Z,14.60
2018-09-01T19:03:34.318Z,14.60
2018-09-01T19:06:03.388Z,14.50
2018-09-01T19:08:31.903Z,14.50
2018-09-01T19:11:00.315Z,14.30
2018-09-01T19:13:29.390Z,14.30
2018-09-01T19:15:57.753Z,14.30
2018-09-01T19:18:26.143Z,14.30
2018-09-01T19:20:54.549Z,14.10
2018-09-01T19:23:22.912Z,14.10
2018-09-01T19:25:51.368Z,14.10
2018-09-01T19:28:19.803Z,14.10
2018-09-01T19:30:48.185Z,14.10
2018-09-01T19:33:16.559Z,14.00
2018-09-01T19:35:47.070Z,14.00
2018-09-01T19:38:16.400Z,14.00
2018-09-01T19:40:44.798Z,13.90
2018-09-01T19:43:13.230Z,13.90
2018-09-01T19:45:41.750Z,13.90
2018-09-01T19:48:09.953Z,13.80
2018-09-01T19:50:38.431Z,13.80
2018-09-01T19:53:06.807Z,13.80
2018-09-01T19:55:36.243Z,13.70
2018-09-01T19:58:04.645Z,13.70
2018-09-01T20:00:33.025Z,13.70
2018-09-01T20:03:01.517Z,13.70
2018-09-01T20:05:30.068Z,13.50
2018-09-01T20:07:59.016Z,14.70
2018-09-01T20:10:27.377Z,13.50
2018-09-01T20:12:55.830Z,13.50
2018-09-01T20:15:24.923Z,13.40
2018-09-01T20:17:53.291Z,13.40
2018-09-01T20:20:21.828Z,13.40
2018-09-01T20:22:50.223Z,13.50
2018-09-01T20:25:18.670Z,13.20
2018-09-01T20:27:46.943Z,13.30
2018-09-01T20:30:15.308Z,13.30
2018-09-01T20:32:45.103Z,13.30
2018-09-01T20:35:18.948Z,13.40
2018-09-01T20:37:47.387Z,13.20
2018-09-01T20:40:15.721Z,13.10
2018-09-01T20:42:44.132Z,13.00
2018-09-01T20:45:13.094Z,13.00
2018-09-01T20:47:41.538Z,12.90
2018-09-01T20:50:09.970Z,12.90
2018-09-01T20:52:38.871Z,12.90
2018-09-01T20:55:07.215Z,12.90
2018-09-01T20:57:35.601Z,12.80
2018-09-01T21:00:04.644Z,12.80
2018-09-01T21:02:34.026Z,12.70
2018-09-01T21:05:02.914Z,12.70
2018-09-01T21:07:31.293Z,12.70
2018-09-01T21:09:59.673Z,12.50
2018-09-01T21:12:28.099Z,12.40
2018-09-01T21:14:56.533Z,12.30
2018-09-01T21:17:25.885Z,12.20
2018-09-01T21:19:54.242Z,12.00
2018-09-01T21:22:22.616Z,11.90
2018-09-01T21:24:50.992Z,11.70
2018-09-01T21:27:19.447Z,11.60
2018-09-01T21:29:47.819Z,11.40
2018-09-01T21:32:17.278Z,11.40
2018-09-01T21:34:45.626Z,11.30
2018-09-01T21:37:13.954Z,11.30
2018-09-01T21:39:42.338Z,11.30
2018-09-01T21:42:10.701Z,8.60
2018-09-01T21:44:39.055Z,11.40
2018-09-01T21:47:07.642Z,11.40
2018-09-01T21:49:35.990Z,11.40
2018-09-01T21:52:04.358Z,11.40
2018-09-01T21:54:33.042Z,11.40
2018-09-01T21:57:01.457Z,11.40
2018-09-01T21:59:29.750Z,11.40
2018-09-01T22:02:03.362Z,11.40
2018-09-01T22:05:35.369Z,11.30
2018-09-01T22:08:03.701Z,11.30
2018-09-01T22:10:32.685Z,11.20
2018-09-01T22:13:01.013Z,11.00
2018-09-01T22:15:29.336Z,10.90
2018-09-01T22:17:57.402Z,10.70
2018-09-01T22:20:25.726Z,10.60
2018-09-01T22:22:54.098Z,10.50
2018-09-01T22:25:22.412Z,10.40
2018-09-01T22:27:50.730Z,10.40
2018-09-01T22:30:19.099Z,10.20
2018-09-01T22:32:48.072Z,10.30
2018-09-01T22:35:17.420Z,10.30
2018-09-01T22:37:45.756Z,10.20
2018-09-01T22:40:14.122Z,10.10
2018-09-01T22:42:42.458Z,10.10
2018-09-01T22:45:11.635Z,10.00
2018-09-01T22:47:40.101Z,10.00
2018-09-01T22:50:08.404Z,9.90
2018-09-01T22:52:36.681Z,9.70
2018-09-01T22:55:05.093Z,9.70
2018-09-01T22:57:33.441Z,9.70
2018-09-01T23:00:01.767Z,9.70
2018-09-01T23:02:30.098Z,9.50
2018-09-01T23:04:58.398Z,9.50
2018-09-01T23:07:26.851Z,9.40
2018-09-01T23:09:55.180Z,9.40
2018-09-01T23:12:23.530Z,9.30
2018-09-01T23:14:51.882Z,9.20
2018-09-01T23:17:20.219Z,9.10
2018-09-01T23:19:49.538Z,9.10
2018-09-01T23:22:17.864Z,9.00
2018-09-01T23:24:47.481Z,9.00
2018-09-01T23:27:15.848Z,9.00
2018-09-01T23:29:44.219Z,8.90
2018-09-01T23:32:12.680Z,8.90
2018-09-01T23:34:41.002Z,8.80
2018-09-01T23:37:09.326Z,8.80
2018-09-01T23:39:38.512Z,8.80
2018-09-01T23:42:06.806Z,8.80
2018-09-01T23:44:35.211Z,8.70
2018-09-01T23:47:03.538Z,8.60
2018-09-01T23:49:31.897Z,8.60
2018-09-01T23:52:01.294Z,8.60
2018-09-01T23:54:29.674Z,8.60
2018-09-01T23:56:58.041Z,8.70
2018-09-01T23:59:26.361Z,8.80
